sensor_id;sensor_type;location;lat;lon;timestamp;P1;durP1;ratioP1;P2;durP2;ratioP2
74616;SDS011;63123;50.906;4.198;2023-04-03T00:01:29;5.60;;;5.10;;
74616;SDS011;63123;50.906;4.198;2023-04-03T00:03:55;5.25;;;4.85;;
74616;SDS011;63123;50.906;4.198;2023-04-03T00:06:21;5.22;;;4.82;;
74616;SDS011;63123;50.906;4.198;2023-04-03T00:08:47;4.80;;;4.30;;
74616;SDS011;63123;50.906;4.198;2023-04-03T00:11:14;5.43;;;4.90;;
74616;SDS011;63123;50.906;4.198;2023-04-03T00:13:40;4.53;;;4.13;;
74616;SDS011;63123;50.906;4.198;2023-04-03T00:16:07;5.30;;;4.60;;
74616;SDS011;63123;50.906;4.198;2023-04-03T00:18:33;5.20;;;4.78;;
74616;SDS011;63123;50.906;4.198;2023-04-03T00:20:58;4.97;;;4.55;;
74616;SDS011;63123;50.906;4.198;2023-04-03T00:23:24;4.55;;;4.15;;
74616;SDS011;63123;50.906;4.198;2023-04-03T00:25:50;4.78;;;4.38;;
74616;SDS011;63123;50.906;4.198;2023-04-03T00:28:17;4.53;;;4.13;;
74616;SDS011;63123;50.906;4.198;2023-04-03T00:30:42;4.43;;;4.10;;
74616;SDS011;63123;50.906;4.198;2023-04-03T00:33:10;4.93;;;4.45;;
74616;SDS011;63123;50.906;4.198;2023-04-03T00:35:37;4.28;;;3.97;;
74616;SDS011;63123;50.906;4.198;2023-04-03T00:38:03;4.63;;;4.13;;
74616;SDS011;63123;50.906;4.198;2023-04-03T00:40:32;4.85;;;4.45;;
74616;SDS011;63123;50.906;4.198;2023-04-03T00:43:00;5.32;;;4.82;;
74616;SDS011;63123;50.906;4.198;2023-04-03T00:45:27;4.70;;;4.18;;
74616;SDS011;63123;50.906;4.198;2023-04-03T00:47:58;4.88;;;4.38;;
74616;SDS011;63123;50.906;4.198;2023-04-03T00:50:27;5.30;;;4.90;;
74616;SDS011;63123;50.906;4.198;2023-04-03T00:52:54;5.53;;;5.03;;
74616;SDS011;63123;50.906;4.198;2023-04-03T00:55:20;4.53;;;4.13;;
74616;SDS011;63123;50.906;4.198;2023-04-03T00:57:47;4.65;;;4.25;;
74616;SDS011;63123;50.906;4.198;2023-04-03T01:00:14;4.55;;;4.15;;
74616;SDS011;63123;50.906;4.198;2023-04-03T01:02:43;4.45;;;4.05;;
74616;SDS011;63123;50.906;4.198;2023-04-03T01:05:08;4.80;;;4.40;;
74616;SDS011;63123;50.906;4.198;2023-04-03T01:07:35;4.10;;;3.80;;
74616;SDS011;63123;50.906;4.198;2023-04-03T01:10:03;4.82;;;4.43;;
74616;SDS011;63123;50.906;4.198;2023-04-03T01:12:35;4.90;;;4.50;;
74616;SDS011;63123;50.906;4.198;2023-04-03T01:15:13;4.72;;;4.32;;
74616;SDS011;63123;50.906;4.198;2023-04-03T01:17:51;4.22;;;3.92;;
74616;SDS011;63123;50.906;4.198;2023-04-03T01:25:35;4.28;;;3.88;;
74616;SDS011;63123;50.906;4.198;2023-04-03T01:28:22;4.03;;;3.72;;
74616;SDS011;63123;50.906;4.198;2023-04-03T01:33:46;4.45;;;4.05;;
74616;SDS011;63123;50.906;4.198;2023-04-03T01:36:19;4.65;;;4.18;;
74616;SDS011;63123;50.906;4.198;2023-04-03T01:38:47;4.07;;;3.67;;
74616;SDS011;63123;50.906;4.198;2023-04-03T01:41:13;4.70;;;3.88;;
74616;SDS011;63123;50.906;4.198;2023-04-03T01:43:40;3.97;;;3.58;;
74616;SDS011;63123;50.906;4.198;2023-04-03T01:46:06;3.83;;;3.50;;
74616;SDS011;63123;50.906;4.198;2023-04-03T01:48:32;4.25;;;3.95;;
74616;SDS011;63123;50.906;4.198;2023-04-03T01:50:58;4.40;;;4.00;;
74616;SDS011;63123;50.906;4.198;2023-04-03T01:53:24;3.72;;;3.42;;
74616;SDS011;63123;50.906;4.198;2023-04-03T01:55:50;4.22;;;3.85;;
74616;SDS011;63123;50.906;4.198;2023-04-03T01:58:15;3.95;;;3.60;;
74616;SDS011;63123;50.906;4.198;2023-04-03T02:00:41;4.65;;;4.10;;
74616;SDS011;63123;50.906;4.198;2023-04-03T02:03:07;4.10;;;3.80;;
74616;SDS011;63123;50.906;4.198;2023-04-03T02:05:32;4.03;;;3.45;;
74616;SDS011;63123;50.906;4.198;2023-04-03T02:07:58;4.15;;;3.75;;
74616;SDS011;63123;50.906;4.198;2023-04-03T02:10:24;3.80;;;3.50;;
74616;SDS011;63123;50.906;4.198;2023-04-03T02:12:50;3.72;;;3.30;;
74616;SDS011;63123;50.906;4.198;2023-04-03T02:15:16;4.03;;;3.67;;
74616;SDS011;63123;50.906;4.198;2023-04-03T02:17:42;4.25;;;3.85;;
74616;SDS011;63123;50.906;4.198;2023-04-03T02:20:07;3.88;;;3.58;;
74616;SDS011;63123;50.906;4.198;2023-04-03T02:22:34;3.88;;;3.58;;
74616;SDS011;63123;50.906;4.198;2023-04-03T02:25:00;3.83;;;3.53;;
74616;SDS011;63123;50.906;4.198;2023-04-03T02:27:25;4.28;;;3.65;;
74616;SDS011;63123;50.906;4.198;2023-04-03T02:29:52;4.35;;;3.95;;
74616;SDS011;63123;50.906;4.198;2023-04-03T02:32:17;3.55;;;3.25;;
74616;SDS011;63123;50.906;4.198;2023-04-03T02:34:43;3.58;;;3.10;;
74616;SDS011;63123;50.906;4.198;2023-04-03T02:37:08;6.07;;;3.88;;
74616;SDS011;63123;50.906;4.198;2023-04-03T02:39:34;3.38;;;3.08;;
74616;SDS011;63123;50.906;4.198;2023-04-03T02:42:00;3.95;;;3.50;;
74616;SDS011;63123;50.906;4.198;2023-04-03T02:44:25;3.58;;;3.30;;
74616;SDS011;63123;50.906;4.198;2023-04-03T02:46:51;4.03;;;3.60;;
74616;SDS011;63123;50.906;4.198;2023-04-03T02:49:17;3.63;;;3.25;;
74616;SDS011;63123;50.906;4.198;2023-04-03T02:51:42;3.97;;;3.67;;
74616;SDS011;63123;50.906;4.198;2023-04-03T02:54:08;3.60;;;3.30;;
74616;SDS011;63123;50.906;4.198;2023-04-03T02:56:33;3.42;;;3.00;;
74616;SDS011;63123;50.906;4.198;2023-04-03T02:58:59;3.47;;;3.17;;
74616;SDS011;63123;50.906;4.198;2023-04-03T03:01:25;3.67;;;3.33;;
74616;SDS011;63123;50.906;4.198;2023-04-03T03:03:53;3.47;;;3.17;;
74616;SDS011;63123;50.906;4.198;2023-04-03T03:06:19;3.38;;;3.08;;
74616;SDS011;63123;50.906;4.198;2023-04-03T03:08:45;3.60;;;3.00;;
74616;SDS011;63123;50.906;4.198;2023-04-03T03:11:11;3.63;;;3.33;;
74616;SDS011;63123;50.906;4.198;2023-04-03T03:13:36;4.30;;;3.80;;
74616;SDS011;63123;50.906;4.198;2023-04-03T03:16:02;3.67;;;3.38;;
74616;SDS011;63123;50.906;4.198;2023-04-03T03:18:28;3.22;;;3.03;;
74616;SDS011;63123;50.906;4.198;2023-04-03T03:20:55;3.60;;;3.30;;
74616;SDS011;63123;50.906;4.198;2023-04-03T03:23:22;3.25;;;2.95;;
74616;SDS011;63123;50.906;4.198;2023-04-03T03:25:49;3.53;;;3.22;;
74616;SDS011;63123;50.906;4.198;2023-04-03T03:28:20;4.10;;;3.75;;
74616;SDS011;63123;50.906;4.198;2023-04-03T03:30:45;3.60;;;3.25;;
74616;SDS011;63123;50.906;4.198;2023-04-03T03:33:11;3.45;;;3.15;;
74616;SDS011;63123;50.906;4.198;2023-04-03T03:35:37;3.30;;;3.03;;
74616;SDS011;63123;50.906;4.198;2023-04-03T03:38:03;3.28;;;2.97;;
74616;SDS011;63123;50.906;4.198;2023-04-03T03:40:28;3.55;;;3.25;;
74616;SDS011;63123;50.906;4.198;2023-04-03T03:42:54;3.70;;;3.40;;
74616;SDS011;63123;50.906;4.198;2023-04-03T03:45:19;3.17;;;2.90;;
74616;SDS011;63123;50.906;4.198;2023-04-03T03:47:45;3.65;;;3.35;;
74616;SDS011;63123;50.906;4.198;2023-04-03T03:50:11;4.13;;;3.72;;
74616;SDS011;63123;50.906;4.198;2023-04-03T03:52:36;3.00;;;2.70;;
74616;SDS011;63123;50.906;4.198;2023-04-03T03:55:03;3.50;;;3.20;;
74616;SDS011;63123;50.906;4.198;2023-04-03T03:57:29;3.83;;;3.38;;
74616;SDS011;63123;50.906;4.198;2023-04-03T03:59:55;3.72;;;3.42;;
74616;SDS011;63123;50.906;4.198;2023-04-03T04:02:20;3.08;;;2.88;;
74616;SDS011;63123;50.906;4.198;2023-04-03T04:04:46;3.45;;;3.20;;
74616;SDS011;63123;50.906;4.198;2023-04-03T04:07:12;3.40;;;3.10;;
74616;SDS011;63123;50.906;4.198;2023-04-03T04:09:38;3.40;;;3.10;;
74616;SDS011;63123;50.906;4.198;2023-04-03T04:12:03;2.97;;;2.78;;
74616;SDS011;63123;50.906;4.198;2023-04-03T04:14:29;4.55;;;3.60;;
74616;SDS011;63123;50.906;4.198;2023-04-03T04:16:54;4.10;;;3.70;;
74616;SDS011;63123;50.906;4.198;2023-04-03T04:19:20;3.50;;;3.20;;
74616;SDS011;63123;50.906;4.198;2023-04-03T04:21:46;3.92;;;3.63;;
74616;SDS011;63123;50.906;4.198;2023-04-03T04:24:11;5.25;;;4.75;;
74616;SDS011;63123;50.906;4.198;2023-04-03T04:26:37;3.50;;;3.20;;
74616;SDS011;63123;50.906;4.198;2023-04-03T04:29:02;3.67;;;3.38;;
74616;SDS011;63123;50.906;4.198;2023-04-03T04:31:28;3.28;;;2.90;;
74616;SDS011;63123;50.906;4.198;2023-04-03T04:33:54;3.58;;;3.28;;
74616;SDS011;63123;50.906;4.198;2023-04-03T04:36:19;3.50;;;3.30;;
74616;SDS011;63123;50.906;4.198;2023-04-03T04:38:45;3.55;;;3.25;;
74616;SDS011;63123;50.906;4.198;2023-04-03T04:41:10;4.20;;;3.50;;
74616;SDS011;63123;50.906;4.198;2023-04-03T04:43:36;3.70;;;3.40;;
74616;SDS011;63123;50.906;4.198;2023-04-03T04:46:03;3.72;;;3.42;;
74616;SDS011;63123;50.906;4.198;2023-04-03T04:48:30;3.90;;;3.38;;
74616;SDS011;63123;50.906;4.198;2023-04-03T04:50:56;4.13;;;3.72;;
74616;SDS011;63123;50.906;4.198;2023-04-03T04:53:21;3.65;;;3.35;;
74616;SDS011;63123;50.906;4.198;2023-04-03T04:55:47;3.67;;;3.38;;
74616;SDS011;63123;50.906;4.198;2023-04-03T04:58:13;3.95;;;3.55;;
74616;SDS011;63123;50.906;4.198;2023-04-03T05:00:39;3.40;;;3.10;;
74616;SDS011;63123;50.906;4.198;2023-04-03T05:03:04;3.72;;;3.42;;
74616;SDS011;63123;50.906;4.198;2023-04-03T05:05:30;3.88;;;3.50;;
74616;SDS011;63123;50.906;4.198;2023-04-03T05:07:56;3.88;;;3.58;;
74616;SDS011;63123;50.906;4.198;2023-04-03T05:10:21;3.90;;;3.60;;
74616;SDS011;63123;50.906;4.198;2023-04-03T05:12:47;4.03;;;3.63;;
74616;SDS011;63123;50.906;4.198;2023-04-03T05:15:12;3.95;;;3.65;;
74616;SDS011;63123;50.906;4.198;2023-04-03T05:17:38;3.70;;;3.40;;
74616;SDS011;63123;50.906;4.198;2023-04-03T05:20:04;3.10;;;2.90;;
74616;SDS011;63123;50.906;4.198;2023-04-03T05:22:30;3.85;;;3.47;;
74616;SDS011;63123;50.906;4.198;2023-04-03T05:24:56;3.88;;;3.58;;
74616;SDS011;63123;50.906;4.198;2023-04-03T05:27:21;3.60;;;3.30;;
74616;SDS011;63123;50.906;4.198;2023-04-03T05:29:49;4.13;;;3.30;;
74616;SDS011;63123;50.906;4.198;2023-04-03T05:32:15;3.72;;;3.42;;
74616;SDS011;63123;50.906;4.198;2023-04-03T05:34:41;3.85;;;3.55;;
74616;SDS011;63123;50.906;4.198;2023-04-03T05:37:07;3.75;;;3.38;;
74616;SDS011;63123;50.906;4.198;2023-04-03T05:39:32;3.58;;;3.28;;
74616;SDS011;63123;50.906;4.198;2023-04-03T05:41:58;4.18;;;3.88;;
74616;SDS011;63123;50.906;4.198;2023-04-03T05:44:24;3.25;;;3.05;;
74616;SDS011;63123;50.906;4.198;2023-04-03T05:46:50;3.90;;;3.60;;
74616;SDS011;63123;50.906;4.198;2023-04-03T05:49:15;4.05;;;3.75;;
74616;SDS011;63123;50.906;4.198;2023-04-03T05:51:41;3.83;;;3.53;;
74616;SDS011;63123;50.906;4.198;2023-04-03T05:54:17;4.05;;;3.67;;
74616;SDS011;63123;50.906;4.198;2023-04-03T05:56:48;4.30;;;3.90;;
74616;SDS011;63123;50.906;4.198;2023-04-03T05:59:14;4.07;;;3.40;;
74616;SDS011;63123;50.906;4.198;2023-04-03T06:01:40;3.60;;;3.40;;
74616;SDS011;63123;50.906;4.198;2023-04-03T06:04:06;3.80;;;3.50;;
74616;SDS011;63123;50.906;4.198;2023-04-03T06:06:43;4.07;;;3.75;;
74616;SDS011;63123;50.906;4.198;2023-04-03T06:09:18;4.32;;;3.83;;
74616;SDS011;63123;50.906;4.198;2023-04-03T06:11:48;3.97;;;3.60;;
74616;SDS011;63123;50.906;4.198;2023-04-03T06:14:13;4.20;;;3.90;;
74616;SDS011;63123;50.906;4.198;2023-04-03T06:16:39;4.30;;;3.90;;
74616;SDS011;63123;50.906;4.198;2023-04-03T06:19:05;4.22;;;3.25;;
74616;SDS011;63123;50.906;4.198;2023-04-03T06:21:32;3.63;;;3.33;;
74616;SDS011;63123;50.906;4.198;2023-04-03T06:23:58;3.58;;;3.28;;
74616;SDS011;63123;50.906;4.198;2023-04-03T06:26:24;3.65;;;3.35;;
74616;SDS011;63123;50.906;4.198;2023-04-03T06:28:49;3.95;;;3.65;;
74616;SDS011;63123;50.906;4.198;2023-04-03T06:31:15;3.50;;;3.20;;
74616;SDS011;63123;50.906;4.198;2023-04-03T06:33:41;3.83;;;3.47;;
74616;SDS011;63123;50.906;4.198;2023-04-03T06:36:07;2.92;;;2.72;;
74616;SDS011;63123;50.906;4.198;2023-04-03T06:38:33;4.20;;;3.90;;
74616;SDS011;63123;50.906;4.198;2023-04-03T06:41:00;3.47;;;3.17;;
74616;SDS011;63123;50.906;4.198;2023-04-03T06:43:25;3.42;;;3.20;;
74616;SDS011;63123;50.906;4.198;2023-04-03T06:45:51;3.80;;;3.50;;
74616;SDS011;63123;50.906;4.198;2023-04-03T06:48:17;4.00;;;3.70;;
74616;SDS011;63123;50.906;4.198;2023-04-03T06:50:43;4.03;;;3.72;;
74616;SDS011;63123;50.906;4.198;2023-04-03T06:53:09;3.78;;;3.47;;
74616;SDS011;63123;50.906;4.198;2023-04-03T06:55:35;3.80;;;3.50;;
74616;SDS011;63123;50.906;4.198;2023-04-03T06:58:00;3.70;;;3.40;;
74616;SDS011;63123;50.906;4.198;2023-04-03T07:00:26;3.92;;;3.63;;
74616;SDS011;63123;50.906;4.198;2023-04-03T07:02:52;3.63;;;3.33;;
74616;SDS011;63123;50.906;4.198;2023-04-03T07:05:18;3.97;;;3.67;;
74616;SDS011;63123;50.906;4.198;2023-04-03T07:07:44;3.92;;;3.63;;
74616;SDS011;63123;50.906;4.198;2023-04-03T07:10:09;3.67;;;3.38;;
74616;SDS011;63123;50.906;4.198;2023-04-03T07:12:36;4.03;;;3.72;;
74616;SDS011;63123;50.906;4.198;2023-04-03T07:15:02;4.18;;;3.78;;
74616;SDS011;63123;50.906;4.198;2023-04-03T07:17:29;4.03;;;3.72;;
74616;SDS011;63123;50.906;4.198;2023-04-03T07:19:55;4.53;;;4.13;;
74616;SDS011;63123;50.906;4.198;2023-04-03T07:22:20;4.32;;;3.92;;
74616;SDS011;63123;50.906;4.198;2023-04-03T07:24:46;3.63;;;3.30;;
74616;SDS011;63123;50.906;4.198;2023-04-03T07:27:12;3.95;;;3.60;;
74616;SDS011;63123;50.906;4.198;2023-04-03T07:29:38;3.92;;;3.63;;
74616;SDS011;63123;50.906;4.198;2023-04-03T07:32:04;3.70;;;3.40;;
74616;SDS011;63123;50.906;4.198;2023-04-03T07:34:30;3.65;;;3.35;;
74616;SDS011;63123;50.906;4.198;2023-04-03T07:36:57;3.78;;;3.47;;
74616;SDS011;63123;50.906;4.198;2023-04-03T07:39:23;3.53;;;3.25;;
74616;SDS011;63123;50.906;4.198;2023-04-03T07:41:49;3.63;;;3.33;;
74616;SDS011;63123;50.906;4.198;2023-04-03T07:44:15;4.53;;;4.03;;
74616;SDS011;63123;50.906;4.198;2023-04-03T07:46:40;4.38;;;4.07;;
74616;SDS011;63123;50.906;4.198;2023-04-03T07:49:07;3.92;;;3.63;;
74616;SDS011;63123;50.906;4.198;2023-04-03T07:51:33;3.45;;;3.15;;
74616;SDS011;63123;50.906;4.198;2023-04-03T07:53:58;4.25;;;3.85;;
74616;SDS011;63123;50.906;4.198;2023-04-03T07:56:25;3.42;;;3.22;;
74616;SDS011;63123;50.906;4.198;2023-04-03T07:58:51;3.67;;;3.22;;
74616;SDS011;63123;50.906;4.198;2023-04-03T08:01:16;3.60;;;3.30;;
74616;SDS011;63123;50.906;4.198;2023-04-03T08:03:42;3.20;;;3.00;;
74616;SDS011;63123;50.906;4.198;2023-04-03T08:06:08;4.20;;;3.80;;
74616;SDS011;63123;50.906;4.198;2023-04-03T08:08:34;3.75;;;3.45;;
74616;SDS011;63123;50.906;4.198;2023-04-03T08:11:00;3.92;;;3.55;;
74616;SDS011;63123;50.906;4.198;2023-04-03T08:13:27;3.17;;;2.88;;
74616;SDS011;63123;50.906;4.198;2023-04-03T08:15:53;3.45;;;3.17;;
74616;SDS011;63123;50.906;4.198;2023-04-03T08:18:19;3.40;;;3.10;;
74616;SDS011;63123;50.906;4.198;2023-04-03T08:20:46;3.72;;;3.42;;
74616;SDS011;63123;50.906;4.198;2023-04-03T08:23:12;3.40;;;3.10;;
74616;SDS011;63123;50.906;4.198;2023-04-03T08:25:42;3.28;;;2.97;;
74616;SDS011;63123;50.906;4.198;2023-04-03T08:28:08;3.47;;;3.20;;
74616;SDS011;63123;50.906;4.198;2023-04-03T08:30:38;3.58;;;3.28;;
74616;SDS011;63123;50.906;4.198;2023-04-03T08:33:05;3.97;;;3.60;;
74616;SDS011;63123;50.906;4.198;2023-04-03T08:35:31;3.92;;;3.63;;
74616;SDS011;63123;50.906;4.198;2023-04-03T08:37:56;3.97;;;3.67;;
74616;SDS011;63123;50.906;4.198;2023-04-03T08:40:22;4.20;;;3.90;;
74616;SDS011;63123;50.906;4.198;2023-04-03T08:45:50;5.53;;;5.00;;
74616;SDS011;63123;50.906;4.198;2023-04-03T08:48:21;5.45;;;4.95;;
74616;SDS011;63123;50.906;4.198;2023-04-03T08:50:59;5.22;;;4.82;;
74616;SDS011;63123;50.906;4.198;2023-04-03T08:53:30;4.20;;;3.90;;
74616;SDS011;63123;50.906;4.198;2023-04-03T08:56:04;4.35;;;4.05;;
74616;SDS011;63123;50.906;4.198;2023-04-03T08:59:10;4.17;;;3.77;;
74616;SDS011;63123;50.906;4.198;2023-04-03T09:01:30;4.07;;;3.78;;
74616;SDS011;63123;50.906;4.198;2023-04-03T09:04:02;4.15;;;3.20;;
74616;SDS011;63123;50.906;4.198;2023-04-03T09:06:34;3.40;;;3.10;;
74616;SDS011;63123;50.906;4.198;2023-04-03T09:09:13;2.88;;;2.60;;
74616;SDS011;63123;50.906;4.198;2023-04-03T09:12:06;3.72;;;3.00;;
74616;SDS011;63123;50.906;4.198;2023-04-03T09:17:41;3.40;;;3.10;;
74616;SDS011;63123;50.906;4.198;2023-04-03T09:20:25;3.47;;;3.13;;
74616;SDS011;63123;50.906;4.198;2023-04-03T09:22:55;3.17;;;2.80;;
74616;SDS011;63123;50.906;4.198;2023-04-03T09:25:25;3.55;;;3.08;;
74616;SDS011;63123;50.906;4.198;2023-04-03T09:27:52;3.42;;;3.13;;
74616;SDS011;63123;50.906;4.198;2023-04-03T09:30:20;2.80;;;2.60;;
74616;SDS011;63123;50.906;4.198;2023-04-03T09:32:51;3.22;;;2.70;;
74616;SDS011;63123;50.906;4.198;2023-04-03T09:35:28;3.10;;;2.40;;
74616;SDS011;63123;50.906;4.198;2023-04-03T09:38:00;2.75;;;2.55;;
74616;SDS011;63123;50.906;4.198;2023-04-03T09:42:52;2.80;;;2.47;;
74616;SDS011;63123;50.906;4.198;2023-04-03T09:45:32;2.95;;;2.28;;
74616;SDS011;63123;50.906;4.198;2023-04-03T09:50:38;2.30;;;2.10;;
74616;SDS011;63123;50.906;4.198;2023-04-03T09:56:26;2.95;;;2.15;;
74616;SDS011;63123;50.906;4.198;2023-04-03T10:06:31;2.20;;;2.10;;
74616;SDS011;63123;50.906;4.198;2023-04-03T10:09:05;3.65;;;2.67;;
74616;SDS011;63123;50.906;4.198;2023-04-03T10:11:46;2.38;;;2.10;;
74616;SDS011;63123;50.906;4.198;2023-04-03T10:14:24;3.80;;;2.40;;
74616;SDS011;63123;50.906;4.198;2023-04-03T10:16:53;2.40;;;2.20;;
74616;SDS011;63123;50.906;4.198;2023-04-03T10:19:44;1.70;;;1.60;;
74616;SDS011;63123;50.906;4.198;2023-04-03T10:22:18;2.97;;;2.30;;
74616;SDS011;63123;50.906;4.198;2023-04-03T10:25:04;2.63;;;1.95;;
74616;SDS011;63123;50.906;4.198;2023-04-03T10:36:23;3.00;;;1.80;;
74616;SDS011;63123;50.906;4.198;2023-04-03T10:55:32;2.10;;;1.70;;
74616;SDS011;63123;50.906;4.198;2023-04-03T10:58:20;3.58;;;1.77;;
74616;SDS011;63123;50.906;4.198;2023-04-03T11:00:51;1.90;;;1.70;;
74616;SDS011;63123;50.906;4.198;2023-04-03T11:03:53;2.47;;;1.83;;
74616;SDS011;63123;50.906;4.198;2023-04-03T11:06:13;2.28;;;1.70;;
74616;SDS011;63123;50.906;4.198;2023-04-03T11:08:51;2.95;;;2.15;;
74616;SDS011;63123;50.906;4.198;2023-04-03T11:11:26;1.75;;;1.65;;
74616;SDS011;63123;50.906;4.198;2023-04-03T11:13:56;2.60;;;2.08;;
74616;SDS011;63123;50.906;4.198;2023-04-03T11:16:29;2.25;;;1.67;;
74616;SDS011;63123;50.906;4.198;2023-04-03T11:24:41;3.28;;;1.90;;
74616;SDS011;63123;50.906;4.198;2023-04-03T11:27:11;2.45;;;2.03;;
74616;SDS011;63123;50.906;4.198;2023-04-03T11:29:43;1.75;;;1.50;;
74616;SDS011;63123;50.906;4.198;2023-04-03T11:34:51;1.50;;;1.40;;
74616;SDS011;63123;50.906;4.198;2023-04-03T11:37:31;1.88;;;1.50;;
74616;SDS011;63123;50.906;4.198;2023-04-03T11:40:03;1.80;;;1.70;;
74616;SDS011;63123;50.906;4.198;2023-04-03T11:42:51;1.92;;;1.73;;
74616;SDS011;63123;50.906;4.198;2023-04-03T11:50:46;2.50;;;1.80;;
74616;SDS011;63123;50.906;4.198;2023-04-03T11:58:14;1.40;;;1.30;;
74616;SDS011;63123;50.906;4.198;2023-04-03T12:05:48;1.80;;;1.40;;
74616;SDS011;63123;50.906;4.198;2023-04-03T12:08:27;2.15;;;1.95;;
74616;SDS011;63123;50.906;4.198;2023-04-03T12:16:26;2.50;;;1.50;;
74616;SDS011;63123;50.906;4.198;2023-04-03T12:34:44;1.73;;;1.20;;
74616;SDS011;63123;50.906;4.198;2023-04-03T12:43:33;1.65;;;1.30;;
74616;SDS011;63123;50.906;4.198;2023-04-03T12:46:04;1.75;;;1.50;;
74616;SDS011;63123;50.906;4.198;2023-04-03T12:51:28;1.35;;;1.17;;
74616;SDS011;63123;50.906;4.198;2023-04-03T12:54:04;1.38;;;1.15;;
74616;SDS011;63123;50.906;4.198;2023-04-03T12:56:43;1.70;;;1.30;;
74616;SDS011;63123;50.906;4.198;2023-04-03T13:01:52;1.33;;;1.23;;
74616;SDS011;63123;50.906;4.198;2023-04-03T13:04:20;2.38;;;1.38;;
74616;SDS011;63123;50.906;4.198;2023-04-03T13:06:46;2.13;;;1.23;;
74616;SDS011;63123;50.906;4.198;2023-04-03T13:09:23;1.40;;;1.30;;
74616;SDS011;63123;50.906;4.198;2023-04-03T13:12:18;2.20;;;1.27;;
74616;SDS011;63123;50.906;4.198;2023-04-03T13:14:53;1.55;;;1.23;;
74616;SDS011;63123;50.906;4.198;2023-04-03T13:17:21;1.45;;;1.02;;
74616;SDS011;63123;50.906;4.198;2023-04-03T13:19:47;1.48;;;1.23;;
74616;SDS011;63123;50.906;4.198;2023-04-03T13:22:21;2.25;;;1.50;;
74616;SDS011;63123;50.906;4.198;2023-04-03T13:25:05;1.80;;;1.20;;
74616;SDS011;63123;50.906;4.198;2023-04-03T13:27:33;2.05;;;1.30;;
74616;SDS011;63123;50.906;4.198;2023-04-03T13:30:00;1.60;;;1.20;;
74616;SDS011;63123;50.906;4.198;2023-04-03T13:32:28;1.52;;;1.38;;
74616;SDS011;63123;50.906;4.198;2023-04-03T13:34:56;2.20;;;1.30;;
74616;SDS011;63123;50.906;4.198;2023-04-03T13:37:24;1.52;;;1.25;;
74616;SDS011;63123;50.906;4.198;2023-04-03T13:42:24;1.83;;;1.35;;
74616;SDS011;63123;50.906;4.198;2023-04-03T13:47:40;1.95;;;1.30;;
74616;SDS011;63123;50.906;4.198;2023-04-03T13:55:33;1.40;;;1.30;;
74616;SDS011;63123;50.906;4.198;2023-04-03T14:00:39;1.58;;;1.08;;
74616;SDS011;63123;50.906;4.198;2023-04-03T14:03:16;1.35;;;1.23;;
74616;SDS011;63123;50.906;4.198;2023-04-03T14:05:47;1.52;;;1.42;;
74616;SDS011;63123;50.906;4.198;2023-04-03T14:08:13;1.30;;;1.20;;
74616;SDS011;63123;50.906;4.198;2023-04-03T14:10:38;1.42;;;1.20;;
74616;SDS011;63123;50.906;4.198;2023-04-03T14:13:05;2.15;;;1.25;;
74616;SDS011;63123;50.906;4.198;2023-04-03T14:15:30;1.30;;;1.20;;
74616;SDS011;63123;50.906;4.198;2023-04-03T14:17:57;1.27;;;1.17;;
74616;SDS011;63123;50.906;4.198;2023-04-03T14:20:24;1.63;;;0.93;;
74616;SDS011;63123;50.906;4.198;2023-04-03T14:22:51;1.33;;;1.20;;
74616;SDS011;63123;50.906;4.198;2023-04-03T14:25:19;1.38;;;1.17;;
74616;SDS011;63123;50.906;4.198;2023-04-03T14:27:47;1.90;;;1.40;;
74616;SDS011;63123;50.906;4.198;2023-04-03T14:30:19;1.70;;;1.33;;
74616;SDS011;63123;50.906;4.198;2023-04-03T14:32:48;1.20;;;1.10;;
74616;SDS011;63123;50.906;4.198;2023-04-03T14:35:15;2.15;;;1.45;;
74616;SDS011;63123;50.906;4.198;2023-04-03T14:37:42;1.58;;;1.30;;
74616;SDS011;63123;50.906;4.198;2023-04-03T14:40:08;1.67;;;1.35;;
74616;SDS011;63123;50.906;4.198;2023-04-03T14:42:38;1.92;;;1.60;;
74616;SDS011;63123;50.906;4.198;2023-04-03T14:45:05;1.63;;;1.52;;
74616;SDS011;63123;50.906;4.198;2023-04-03T14:47:33;1.88;;;1.65;;
74616;SDS011;63123;50.906;4.198;2023-04-03T14:50:04;1.65;;;1.30;;
74616;SDS011;63123;50.906;4.198;2023-04-03T14:52:33;2.08;;;1.58;;
74616;SDS011;63123;50.906;4.198;2023-04-03T14:55:01;2.38;;;1.40;;
74616;SDS011;63123;50.906;4.198;2023-04-03T14:57:28;1.85;;;1.27;;
74616;SDS011;63123;50.906;4.198;2023-04-03T14:59:54;1.08;;;0.98;;
74616;SDS011;63123;50.906;4.198;2023-04-03T15:02:30;1.27;;;1.00;;
74616;SDS011;63123;50.906;4.198;2023-04-03T15:05:03;1.60;;;1.00;;
74616;SDS011;63123;50.906;4.198;2023-04-03T15:07:35;2.45;;;1.15;;
74616;SDS011;63123;50.906;4.198;2023-04-03T15:12:52;1.55;;;1.17;;
74616;SDS011;63123;50.906;4.198;2023-04-03T15:15:19;1.40;;;1.10;;
74616;SDS011;63123;50.906;4.198;2023-04-03T15:17:45;2.08;;;1.30;;
74616;SDS011;63123;50.906;4.198;2023-04-03T15:20:16;1.30;;;1.00;;
74616;SDS011;63123;50.906;4.198;2023-04-03T15:22:44;2.53;;;1.33;;
74616;SDS011;63123;50.906;4.198;2023-04-03T15:25:10;1.20;;;1.10;;
74616;SDS011;63123;50.906;4.198;2023-04-03T15:27:36;2.67;;;1.80;;
74616;SDS011;63123;50.906;4.198;2023-04-03T15:30:04;2.47;;;1.50;;
74616;SDS011;63123;50.906;4.198;2023-04-03T15:32:30;1.85;;;1.40;;
74616;SDS011;63123;50.906;4.198;2023-04-03T15:34:56;1.52;;;1.17;;
74616;SDS011;63123;50.906;4.198;2023-04-03T15:37:22;1.88;;;1.08;;
74616;SDS011;63123;50.906;4.198;2023-04-03T15:39:48;1.35;;;1.10;;
74616;SDS011;63123;50.906;4.198;2023-04-03T15:42:13;1.08;;;0.98;;
74616;SDS011;63123;50.906;4.198;2023-04-03T15:44:39;1.92;;;1.13;;
74616;SDS011;63123;50.906;4.198;2023-04-03T15:47:04;1.50;;;1.10;;
74616;SDS011;63123;50.906;4.198;2023-04-03T15:49:31;2.03;;;1.45;;
74616;SDS011;63123;50.906;4.198;2023-04-03T15:51:58;1.75;;;1.15;;
74616;SDS011;63123;50.906;4.198;2023-04-03T15:54:24;1.42;;;1.20;;
74616;SDS011;63123;50.906;4.198;2023-04-03T15:56:50;1.92;;;1.58;;
74616;SDS011;63123;50.906;4.198;2023-04-03T15:59:16;1.20;;;1.05;;
74616;SDS011;63123;50.906;4.198;2023-04-03T16:01:41;1.33;;;1.05;;
74616;SDS011;63123;50.906;4.198;2023-04-03T16:04:07;2.10;;;1.20;;
74616;SDS011;63123;50.906;4.198;2023-04-03T16:06:34;1.70;;;1.10;;
74616;SDS011;63123;50.906;4.198;2023-04-03T16:09:00;1.75;;;1.00;;
74616;SDS011;63123;50.906;4.198;2023-04-03T16:11:26;1.38;;;1.27;;
74616;SDS011;63123;50.906;4.198;2023-04-03T16:13:52;1.40;;;1.00;;
74616;SDS011;63123;50.906;4.198;2023-04-03T16:16:19;1.98;;;1.10;;
74616;SDS011;63123;50.906;4.198;2023-04-03T16:18:45;1.27;;;1.15;;
74616;SDS011;63123;50.906;4.198;2023-04-03T16:21:12;1.55;;;1.45;;
74616;SDS011;63123;50.906;4.198;2023-04-03T16:23:39;1.17;;;1.08;;
74616;SDS011;63123;50.906;4.198;2023-04-03T16:26:05;1.42;;;1.33;;
74616;SDS011;63123;50.906;4.198;2023-04-03T16:28:31;1.17;;;1.05;;
74616;SDS011;63123;50.906;4.198;2023-04-03T16:30:57;1.52;;;1.10;;
74616;SDS011;63123;50.906;4.198;2023-04-03T16:33:22;1.50;;;1.20;;
74616;SDS011;63123;50.906;4.198;2023-04-03T16:35:49;2.38;;;1.10;;
74616;SDS011;63123;50.906;4.198;2023-04-03T16:38:15;1.83;;;1.27;;
74616;SDS011;63123;50.906;4.198;2023-04-03T16:40:41;1.52;;;0.85;;
74616;SDS011;63123;50.906;4.198;2023-04-03T16:43:07;1.65;;;1.40;;
74616;SDS011;63123;50.906;4.198;2023-04-03T16:45:33;1.58;;;1.00;;
74616;SDS011;63123;50.906;4.198;2023-04-03T16:47:59;1.73;;;1.20;;
74616;SDS011;63123;50.906;4.198;2023-04-03T16:50:24;1.20;;;1.02;;
74616;SDS011;63123;50.906;4.198;2023-04-03T16:52:50;2.80;;;1.15;;
74616;SDS011;63123;50.906;4.198;2023-04-03T16:55:16;1.38;;;1.10;;
74616;SDS011;63123;50.906;4.198;2023-04-03T16:57:41;1.75;;;1.20;;
74616;SDS011;63123;50.906;4.198;2023-04-03T17:00:07;1.92;;;1.10;;
74616;SDS011;63123;50.906;4.198;2023-04-03T17:02:33;1.23;;;1.13;;